sensor_id;sensor_type;location;lat;lon;timestamp;P1;durP1;ratioP1;P2;durP2;ratioP2
16642;SDS011;8435;52.184;5.406;2023-04-16T00:01:26;3.87;;;2.30;;
16642;SDS011;8435;52.184;5.406;2023-04-16T00:03:53;3.80;;;1.83;;
16642;SDS011;8435;52.184;5.406;2023-04-16T00:06:19;2.57;;;1.60;;
16642;SDS011;8435;52.184;5.406;2023-04-16T00:08:47;3.80;;;2.00;;
16642;SDS011;8435;52.184;5.406;2023-04-16T00:11:15;3.20;;;1.80;;
16642;SDS011;8435;52.184;5.406;2023-04-16T00:13:42;4.77;;;1.87;;
16642;SDS011;8435;52.184;5.406;2023-04-16T00:16:10;2.90;;;1.97;;
16642;SDS011;8435;52.184;5.406;2023-04-16T00:18:40;5.73;;;2.17;;
16642;SDS011;8435;52.184;5.406;2023-04-16T00:21:06;5.30;;;2.33;;
16642;SDS011;8435;52.184;5.406;2023-04-16T00:23:33;5.57;;;2.27;;
16642;SDS011;8435;52.184;5.406;2023-04-16T00:26:00;6.67;;;2.73;;
16642;SDS011;8435;52.184;5.406;2023-04-16T00:28:29;4.50;;;2.20;;
16642;SDS011;8435;52.184;5.406;2023-04-16T00:30:55;7.77;;;2.57;;
16642;SDS011;8435;52.184;5.406;2023-04-16T00:33:23;6.57;;;2.17;;
16642;SDS011;8435;52.184;5.406;2023-04-16T00:35:50;4.73;;;2.57;;
16642;SDS011;8435;52.184;5.406;2023-04-16T00:38:17;5.97;;;2.70;;
16642;SDS011;8435;52.184;5.406;2023-04-16T00:40:44;5.40;;;2.77;;
16642;SDS011;8435;52.184;5.406;2023-04-16T00:43:10;6.10;;;2.57;;
16642;SDS011;8435;52.184;5.406;2023-04-16T00:45:44;8.17;;;2.80;;
16642;SDS011;8435;52.184;5.406;2023-04-16T00:48:11;9.47;;;3.60;;
16642;SDS011;8435;52.184;5.406;2023-04-16T00:50:39;5.67;;;2.67;;
16642;SDS011;8435;52.184;5.406;2023-04-16T00:53:06;6.13;;;3.33;;
16642;SDS011;8435;52.184;5.406;2023-04-16T00:55:33;8.93;;;3.27;;
16642;SDS011;8435;52.184;5.406;2023-04-16T00:58:00;6.87;;;2.90;;
16642;SDS011;8435;52.184;5.406;2023-04-16T01:00:28;5.27;;;3.20;;
16642;SDS011;8435;52.184;5.406;2023-04-16T01:02:55;7.27;;;3.10;;
16642;SDS011;8435;52.184;5.406;2023-04-16T01:05:22;4.83;;;2.90;;
16642;SDS011;8435;52.184;5.406;2023-04-16T01:07:50;5.73;;;2.93;;
16642;SDS011;8435;52.184;5.406;2023-04-16T01:10:17;6.20;;;3.17;;
16642;SDS011;8435;52.184;5.406;2023-04-16T01:12:44;8.20;;;3.67;;
16642;SDS011;8435;52.184;5.406;2023-04-16T01:15:10;5.30;;;3.30;;
16642;SDS011;8435;52.184;5.406;2023-04-16T01:17:37;8.33;;;3.80;;
16642;SDS011;8435;52.184;5.406;2023-04-16T01:20:09;7.00;;;3.37;;
16642;SDS011;8435;52.184;5.406;2023-04-16T01:22:41;5.87;;;3.20;;
16642;SDS011;8435;52.184;5.406;2023-04-16T01:25:12;4.33;;;3.03;;
16642;SDS011;8435;52.184;5.406;2023-04-16T01:27:40;7.10;;;3.73;;
16642;SDS011;8435;52.184;5.406;2023-04-16T01:30:07;7.27;;;3.30;;
16642;SDS011;8435;52.184;5.406;2023-04-16T01:32:34;5.97;;;3.40;;
16642;SDS011;8435;52.184;5.406;2023-04-16T01:35:01;5.73;;;3.23;;
16642;SDS011;8435;52.184;5.406;2023-04-16T01:37:28;5.30;;;3.33;;
16642;SDS011;8435;52.184;5.406;2023-04-16T01:39:59;4.97;;;3.30;;
16642;SDS011;8435;52.184;5.406;2023-04-16T01:42:26;6.70;;;4.03;;
16642;SDS011;8435;52.184;5.406;2023-04-16T01:44:52;6.43;;;3.37;;
16642;SDS011;8435;52.184;5.406;2023-04-16T01:47:19;9.77;;;4.27;;
16642;SDS011;8435;52.184;5.406;2023-04-16T01:49:46;8.03;;;3.97;;
16642;SDS011;8435;52.184;5.406;2023-04-16T01:52:13;6.70;;;4.20;;
16642;SDS011;8435;52.184;5.406;2023-04-16T01:54:42;7.47;;;4.17;;
16642;SDS011;8435;52.184;5.406;2023-04-16T01:57:13;9.43;;;4.17;;
16642;SDS011;8435;52.184;5.406;2023-04-16T01:59:40;7.20;;;4.40;;
16642;SDS011;8435;52.184;5.406;2023-04-16T02:02:07;7.50;;;4.03;;
16642;SDS011;8435;52.184;5.406;2023-04-16T02:04:36;7.77;;;4.87;;
16642;SDS011;8435;52.184;5.406;2023-04-16T02:07:03;10.00;;;5.10;;
16642;SDS011;8435;52.184;5.406;2023-04-16T02:09:30;10.47;;;5.17;;
16642;SDS011;8435;52.184;5.406;2023-04-16T02:11:57;7.70;;;4.97;;
16642;SDS011;8435;52.184;5.406;2023-04-16T02:14:25;9.57;;;4.77;;
16642;SDS011;8435;52.184;5.406;2023-04-16T02:16:52;9.77;;;4.93;;
16642;SDS011;8435;52.184;5.406;2023-04-16T02:19:21;8.50;;;4.73;;
16642;SDS011;8435;52.184;5.406;2023-04-16T02:21:51;6.77;;;4.50;;
16642;SDS011;8435;52.184;5.406;2023-04-16T02:24:18;7.60;;;4.80;;
16642;SDS011;8435;52.184;5.406;2023-04-16T02:26:46;8.40;;;4.83;;
16642;SDS011;8435;52.184;5.406;2023-04-16T02:29:13;7.40;;;5.10;;
16642;SDS011;8435;52.184;5.406;2023-04-16T02:31:42;9.23;;;5.50;;
16642;SDS011;8435;52.184;5.406;2023-04-16T02:34:09;8.23;;;4.93;;
16642;SDS011;8435;52.184;5.406;2023-04-16T02:36:36;9.20;;;5.33;;
16642;SDS011;8435;52.184;5.406;2023-04-16T02:39:03;9.63;;;5.63;;
16642;SDS011;8435;52.184;5.406;2023-04-16T02:41:30;9.87;;;5.93;;
16642;SDS011;8435;52.184;5.406;2023-04-16T02:43:57;9.77;;;6.50;;
16642;SDS011;8435;52.184;5.406;2023-04-16T02:46:24;11.20;;;6.87;;
16642;SDS011;8435;52.184;5.406;2023-04-16T02:48:52;9.57;;;6.10;;
16642;SDS011;8435;52.184;5.406;2023-04-16T02:51:22;9.40;;;6.57;;
16642;SDS011;8435;52.184;5.406;2023-04-16T02:53:48;12.97;;;6.40;;
16642;SDS011;8435;52.184;5.406;2023-04-16T02:56:18;9.60;;;6.33;;
16642;SDS011;8435;52.184;5.406;2023-04-16T02:58:45;9.93;;;6.17;;
16642;SDS011;8435;52.184;5.406;2023-04-16T03:01:11;11.37;;;6.57;;
16642;SDS011;8435;52.184;5.406;2023-04-16T03:03:41;10.20;;;6.93;;
16642;SDS011;8435;52.184;5.406;2023-04-16T03:06:09;11.23;;;7.93;;
16642;SDS011;8435;52.184;5.406;2023-04-16T03:08:35;10.80;;;7.47;;
16642;SDS011;8435;52.184;5.406;2023-04-16T03:11:02;11.90;;;7.90;;
16642;SDS011;8435;52.184;5.406;2023-04-16T03:13:32;11.57;;;7.43;;
16642;SDS011;8435;52.184;5.406;2023-04-16T03:15:59;9.63;;;7.20;;
16642;SDS011;8435;52.184;5.406;2023-04-16T03:18:25;11.50;;;8.00;;
16642;SDS011;8435;52.184;5.406;2023-04-16T03:20:53;12.70;;;7.80;;
16642;SDS011;8435;52.184;5.406;2023-04-16T03:23:23;10.27;;;6.77;;
16642;SDS011;8435;52.184;5.406;2023-04-16T03:25:50;9.70;;;6.60;;
16642;SDS011;8435;52.184;5.406;2023-04-16T03:28:17;12.60;;;6.80;;
16642;SDS011;8435;52.184;5.406;2023-04-16T03:30:48;10.93;;;6.67;;
16642;SDS011;8435;52.184;5.406;2023-04-16T03:33:18;10.87;;;7.10;;
16642;SDS011;8435;52.184;5.406;2023-04-16T03:35:45;12.37;;;6.87;;
16642;SDS011;8435;52.184;5.406;2023-04-16T03:38:12;10.00;;;6.80;;
16642;SDS011;8435;52.184;5.406;2023-04-16T03:40:40;11.13;;;7.27;;
16642;SDS011;8435;52.184;5.406;2023-04-16T03:43:07;11.87;;;7.10;;
16642;SDS011;8435;52.184;5.406;2023-04-16T03:45:33;11.57;;;7.10;;
16642;SDS011;8435;52.184;5.406;2023-04-16T03:48:00;9.60;;;6.67;;
16642;SDS011;8435;52.184;5.406;2023-04-16T03:50:31;13.63;;;7.07;;
16642;SDS011;8435;52.184;5.406;2023-04-16T03:52:58;12.20;;;7.30;;
16642;SDS011;8435;52.184;5.406;2023-04-16T03:55:25;10.83;;;6.73;;
16642;SDS011;8435;52.184;5.406;2023-04-16T03:57:53;11.20;;;7.30;;
16642;SDS011;8435;52.184;5.406;2023-04-16T04:00:20;9.47;;;6.57;;
16642;SDS011;8435;52.184;5.406;2023-04-16T04:02:47;8.50;;;6.87;;
16642;SDS011;8435;52.184;5.406;2023-04-16T04:05:15;9.37;;;6.80;;
16642;SDS011;8435;52.184;5.406;2023-04-16T04:07:42;10.40;;;7.47;;
16642;SDS011;8435;52.184;5.406;2023-04-16T04:10:09;10.00;;;7.10;;
16642;SDS011;8435;52.184;5.406;2023-04-16T04:12:36;13.40;;;7.07;;
16642;SDS011;8435;52.184;5.406;2023-04-16T04:15:04;14.77;;;8.10;;
16642;SDS011;8435;52.184;5.406;2023-04-16T04:17:32;9.87;;;7.53;;
16642;SDS011;8435;52.184;5.406;2023-04-16T04:19:58;11.57;;;7.43;;
16642;SDS011;8435;52.184;5.406;2023-04-16T04:22:25;11.53;;;7.70;;
16642;SDS011;8435;52.184;5.406;2023-04-16T04:24:52;11.50;;;7.87;;
16642;SDS011;8435;52.184;5.406;2023-04-16T04:27:19;11.33;;;7.63;;
16642;SDS011;8435;52.184;5.406;2023-04-16T04:29:46;13.40;;;7.53;;
16642;SDS011;8435;52.184;5.406;2023-04-16T04:32:14;8.90;;;7.07;;
16642;SDS011;8435;52.184;5.406;2023-04-16T04:34:40;14.90;;;8.30;;
16642;SDS011;8435;52.184;5.406;2023-04-16T04:37:07;10.57;;;6.70;;
16642;SDS011;8435;52.184;5.406;2023-04-16T04:39:34;10.03;;;6.80;;
16642;SDS011;8435;52.184;5.406;2023-04-16T04:42:00;11.93;;;7.07;;
16642;SDS011;8435;52.184;5.406;2023-04-16T04:44:27;11.93;;;8.10;;
16642;SDS011;8435;52.184;5.406;2023-04-16T04:46:54;12.40;;;7.47;;
16642;SDS011;8435;52.184;5.406;2023-04-16T04:49:22;10.23;;;7.13;;
16642;SDS011;8435;52.184;5.406;2023-04-16T04:51:49;11.20;;;7.03;;
16642;SDS011;8435;52.184;5.406;2023-04-16T04:54:16;13.53;;;7.77;;
16642;SDS011;8435;52.184;5.406;2023-04-16T04:56:43;11.17;;;7.20;;
16642;SDS011;8435;52.184;5.406;2023-04-16T04:59:10;14.37;;;6.90;;
16642;SDS011;8435;52.184;5.406;2023-04-16T05:01:37;11.73;;;7.40;;
16642;SDS011;8435;52.184;5.406;2023-04-16T05:04:04;13.40;;;7.00;;
16642;SDS011;8435;52.184;5.406;2023-04-16T05:06:32;9.77;;;7.03;;
16642;SDS011;8435;52.184;5.406;2023-04-16T05:08:59;10.60;;;7.63;;
16642;SDS011;8435;52.184;5.406;2023-04-16T05:11:26;11.03;;;7.37;;
16642;SDS011;8435;52.184;5.406;2023-04-16T05:13:53;9.67;;;7.43;;
16642;SDS011;8435;52.184;5.406;2023-04-16T05:16:19;11.47;;;8.20;;
16642;SDS011;8435;52.184;5.406;2023-04-16T05:18:46;10.70;;;7.30;;
16642;SDS011;8435;52.184;5.406;2023-04-16T05:21:14;13.57;;;7.93;;
16642;SDS011;8435;52.184;5.406;2023-04-16T05:23:42;9.70;;;7.17;;
16642;SDS011;8435;52.184;5.406;2023-04-16T05:26:09;10.67;;;7.07;;
16642;SDS011;8435;52.184;5.406;2023-04-16T05:28:35;11.63;;;7.00;;
16642;SDS011;8435;52.184;5.406;2023-04-16T05:31:02;10.07;;;7.10;;
16642;SDS011;8435;52.184;5.406;2023-04-16T05:33:29;11.23;;;7.10;;
16642;SDS011;8435;52.184;5.406;2023-04-16T05:35:56;12.97;;;7.90;;
16642;SDS011;8435;52.184;5.406;2023-04-16T05:38:22;12.23;;;8.77;;
16642;SDS011;8435;52.184;5.406;2023-04-16T05:40:51;10.37;;;7.50;;
16642;SDS011;8435;52.184;5.406;2023-04-16T05:43:17;11.10;;;7.53;;
16642;SDS011;8435;52.184;5.406;2023-04-16T05:45:44;10.43;;;7.20;;
16642;SDS011;8435;52.184;5.406;2023-04-16T05:48:11;11.90;;;8.33;;
16642;SDS011;8435;52.184;5.406;2023-04-16T05:50:38;13.87;;;7.57;;
16642;SDS011;8435;52.184;5.406;2023-04-16T05:53:05;11.17;;;7.13;;
16642;SDS011;8435;52.184;5.406;2023-04-16T05:55:32;14.33;;;7.63;;
16642;SDS011;8435;52.184;5.406;2023-04-16T05:58:02;10.60;;;7.37;;
16642;SDS011;8435;52.184;5.406;2023-04-16T06:00:32;14.27;;;8.03;;
16642;SDS011;8435;52.184;5.406;2023-04-16T06:02:58;10.97;;;7.80;;
16642;SDS011;8435;52.184;5.406;2023-04-16T06:05:25;10.97;;;7.17;;
16642;SDS011;8435;52.184;5.406;2023-04-16T06:07:53;11.50;;;7.67;;
16642;SDS011;8435;52.184;5.406;2023-04-16T06:10:21;13.83;;;8.20;;
16642;SDS011;8435;52.184;5.406;2023-04-16T06:12:47;11.60;;;7.60;;
16642;SDS011;8435;52.184;5.406;2023-04-16T06:15:16;12.67;;;8.23;;
16642;SDS011;8435;52.184;5.406;2023-04-16T06:17:43;12.50;;;8.27;;
16642;SDS011;8435;52.184;5.406;2023-04-16T06:20:14;14.37;;;8.63;;
16642;SDS011;8435;52.184;5.406;2023-04-16T06:22:41;12.13;;;8.00;;
16642;SDS011;8435;52.184;5.406;2023-04-16T06:25:08;13.47;;;8.60;;
16642;SDS011;8435;52.184;5.406;2023-04-16T06:27:40;11.67;;;8.27;;
16642;SDS011;8435;52.184;5.406;2023-04-16T06:30:10;13.30;;;8.80;;
16642;SDS011;8435;52.184;5.406;2023-04-16T06:32:40;12.90;;;9.87;;
16642;SDS011;8435;52.184;5.406;2023-04-16T06:35:07;10.37;;;7.97;;
16642;SDS011;8435;52.184;5.406;2023-04-16T06:37:34;13.80;;;8.87;;
16642;SDS011;8435;52.184;5.406;2023-04-16T06:40:04;15.83;;;9.57;;
16642;SDS011;8435;52.184;5.406;2023-04-16T06:42:35;13.13;;;9.37;;
16642;SDS011;8435;52.184;5.406;2023-04-16T06:45:02;13.40;;;9.20;;
16642;SDS011;8435;52.184;5.406;2023-04-16T06:47:31;12.43;;;9.13;;
16642;SDS011;8435;52.184;5.406;2023-04-16T06:49:59;11.80;;;9.10;;
16642;SDS011;8435;52.184;5.406;2023-04-16T06:52:29;13.63;;;9.87;;
16642;SDS011;8435;52.184;5.406;2023-04-16T06:54:55;10.53;;;9.00;;
16642;SDS011;8435;52.184;5.406;2023-04-16T06:57:22;17.93;;;11.67;;
16642;SDS011;8435;52.184;5.406;2023-04-16T06:59:49;17.53;;;11.03;;
16642;SDS011;8435;52.184;5.406;2023-04-16T07:02:16;13.17;;;10.67;;
16642;SDS011;8435;52.184;5.406;2023-04-16T07:04:42;13.47;;;11.10;;
16642;SDS011;8435;52.184;5.406;2023-04-16T07:07:11;17.70;;;11.27;;
16642;SDS011;8435;52.184;5.406;2023-04-16T07:09:37;15.33;;;10.90;;
16642;SDS011;8435;52.184;5.406;2023-04-16T07:12:04;14.13;;;11.10;;
16642;SDS011;8435;52.184;5.406;2023-04-16T07:14:32;15.47;;;10.97;;
16642;SDS011;8435;52.184;5.406;2023-04-16T07:16:58;12.67;;;10.43;;
16642;SDS011;8435;52.184;5.406;2023-04-16T07:19:25;13.40;;;11.13;;
16642;SDS011;8435;52.184;5.406;2023-04-16T07:21:56;14.37;;;9.77;;
16642;SDS011;8435;52.184;5.406;2023-04-16T07:24:24;10.67;;;9.30;;
16642;SDS011;8435;52.184;5.406;2023-04-16T07:26:51;14.43;;;10.43;;
16642;SDS011;8435;52.184;5.406;2023-04-16T07:29:17;14.53;;;10.63;;
16642;SDS011;8435;52.184;5.406;2023-04-16T07:31:44;13.17;;;9.63;;
16642;SDS011;8435;52.184;5.406;2023-04-16T07:34:11;12.77;;;8.87;;
16642;SDS011;8435;52.184;5.406;2023-04-16T07:36:38;12.83;;;9.03;;
16642;SDS011;8435;52.184;5.406;2023-04-16T07:39:05;13.43;;;9.47;;
16642;SDS011;8435;52.184;5.406;2023-04-16T07:41:36;14.67;;;8.63;;
16642;SDS011;8435;52.184;5.406;2023-04-16T07:44:06;11.77;;;8.43;;
16642;SDS011;8435;52.184;5.406;2023-04-16T07:46:35;10.77;;;8.03;;
16642;SDS011;8435;52.184;5.406;2023-04-16T07:49:02;10.50;;;7.77;;
16642;SDS011;8435;52.184;5.406;2023-04-16T07:51:29;12.23;;;8.13;;
16642;SDS011;8435;52.184;5.406;2023-04-16T07:53:56;10.80;;;8.40;;
16642;SDS011;8435;52.184;5.406;2023-04-16T07:56:23;10.27;;;8.43;;
16642;SDS011;8435;52.184;5.406;2023-04-16T07:58:51;11.07;;;7.97;;
16642;SDS011;8435;52.184;5.406;2023-04-16T08:01:18;10.77;;;7.67;;
16642;SDS011;8435;52.184;5.406;2023-04-16T08:03:45;10.63;;;8.30;;
16642;SDS011;8435;52.184;5.406;2023-04-16T08:06:12;8.53;;;6.60;;
16642;SDS011;8435;52.184;5.406;2023-04-16T08:08:38;9.47;;;6.53;;
16642;SDS011;8435;52.184;5.406;2023-04-16T08:11:05;8.03;;;6.20;;
16642;SDS011;8435;52.184;5.406;2023-04-16T08:13:32;9.47;;;6.33;;
16642;SDS011;8435;52.184;5.406;2023-04-16T08:16:00;8.47;;;6.47;;
16642;SDS011;8435;52.184;5.406;2023-04-16T08:18:27;7.87;;;6.50;;
16642;SDS011;8435;52.184;5.406;2023-04-16T08:20:54;7.80;;;5.60;;
16642;SDS011;8435;52.184;5.406;2023-04-16T08:23:20;6.47;;;5.60;;
16642;SDS011;8435;52.184;5.406;2023-04-16T08:25:47;6.63;;;5.07;;
16642;SDS011;8435;52.184;5.406;2023-04-16T08:28:15;7.13;;;5.40;;
16642;SDS011;8435;52.184;5.406;2023-04-16T08:30:41;7.07;;;5.07;;
16642;SDS011;8435;52.184;5.406;2023-04-16T08:33:12;5.73;;;5.13;;
16642;SDS011;8435;52.184;5.406;2023-04-16T08:35:39;5.57;;;4.47;;
16642;SDS011;8435;52.184;5.406;2023-04-16T08:38:06;7.20;;;5.03;;
16642;SDS011;8435;52.184;5.406;2023-04-16T08:40:33;5.30;;;4.80;;
16642;SDS011;8435;52.184;5.406;2023-04-16T08:43:02;4.97;;;4.47;;
16642;SDS011;8435;52.184;5.406;2023-04-16T08:45:34;5.87;;;4.60;;
16642;SDS011;8435;52.184;5.406;2023-04-16T08:48:03;5.93;;;4.83;;
16642;SDS011;8435;52.184;5.406;2023-04-16T08:50:32;5.53;;;4.93;;
16642;SDS011;8435;52.184;5.406;2023-04-16T08:53:03;5.07;;;4.60;;
16642;SDS011;8435;52.184;5.406;2023-04-16T08:55:34;6.10;;;4.80;;
16642;SDS011;8435;52.184;5.406;2023-04-16T08:58:03;5.40;;;4.90;;
16642;SDS011;8435;52.184;5.406;2023-04-16T09:00:33;6.40;;;4.37;;
16642;SDS011;8435;52.184;5.406;2023-04-16T09:03:05;4.87;;;4.37;;
16642;SDS011;8435;52.184;5.406;2023-04-16T09:05:33;4.30;;;3.90;;
16642;SDS011;8435;52.184;5.406;2023-04-16T09:08:01;4.87;;;4.10;;
16642;SDS011;8435;52.184;5.406;2023-04-16T09:10:30;4.40;;;4.00;;
16642;SDS011;8435;52.184;5.406;2023-04-16T09:12:58;4.70;;;4.20;;
16642;SDS011;8435;52.184;5.406;2023-04-16T09:15:25;4.50;;;3.87;;
16642;SDS011;8435;52.184;5.406;2023-04-16T09:17:52;5.00;;;4.13;;
16642;SDS011;8435;52.184;5.406;2023-04-16T09:20:20;5.17;;;4.60;;
16642;SDS011;8435;52.184;5.406;2023-04-16T09:22:51;4.87;;;4.33;;
16642;SDS011;8435;52.184;5.406;2023-04-16T09:25:19;5.60;;;4.60;;
16642;SDS011;8435;52.184;5.406;2023-04-16T09:27:48;4.90;;;4.40;;
16642;SDS011;8435;52.184;5.406;2023-04-16T09:30:20;4.87;;;4.30;;
16642;SDS011;8435;52.184;5.406;2023-04-16T09:32:51;5.67;;;5.03;;
16642;SDS011;8435;52.184;5.406;2023-04-16T09:35:43;5.40;;;4.53;;
16642;SDS011;8435;52.184;5.406;2023-04-16T09:38:12;8.63;;;5.53;;
16642;SDS011;8435;52.184;5.406;2023-04-16T09:40:39;5.83;;;5.20;;
16642;SDS011;8435;52.184;5.406;2023-04-16T09:43:08;7.43;;;5.73;;
16642;SDS011;8435;52.184;5.406;2023-04-16T09:45:46;6.63;;;5.63;;
16642;SDS011;8435;52.184;5.406;2023-04-16T09:48:19;8.70;;;6.13;;
16642;SDS011;8435;52.184;5.406;2023-04-16T09:50:54;7.43;;;6.00;;
16642;SDS011;8435;52.184;5.406;2023-04-16T09:53:23;7.10;;;5.63;;
16642;SDS011;8435;52.184;5.406;2023-04-16T09:55:51;8.47;;;5.90;;
16642;SDS011;8435;52.184;5.406;2023-04-16T09:58:24;8.70;;;6.30;;
16642;SDS011;8435;52.184;5.406;2023-04-16T10:00:54;10.57;;;7.90;;
16642;SDS011;8435;52.184;5.406;2023-04-16T10:03:27;8.90;;;7.90;;
16642;SDS011;8435;52.184;5.406;2023-04-16T10:05:55;12.63;;;8.47;;
16642;SDS011;8435;52.184;5.406;2023-04-16T10:08:25;10.80;;;8.60;;
16642;SDS011;8435;52.184;5.406;2023-04-16T10:10:53;10.53;;;8.33;;
16642;SDS011;8435;52.184;5.406;2023-04-16T10:13:23;13.80;;;9.40;;
16642;SDS011;8435;52.184;5.406;2023-04-16T10:15:52;14.47;;;9.13;;
16642;SDS011;8435;52.184;5.406;2023-04-16T10:18:21;10.40;;;7.93;;
16642;SDS011;8435;52.184;5.406;2023-04-16T10:20:48;12.57;;;8.80;;
16642;SDS011;8435;52.184;5.406;2023-04-16T10:23:15;14.90;;;9.67;;
16642;SDS011;8435;52.184;5.406;2023-04-16T10:25:44;12.30;;;8.37;;
16642;SDS011;8435;52.184;5.406;2023-04-16T10:28:12;9.07;;;8.13;;
16642;SDS011;8435;52.184;5.406;2023-04-16T10:30:40;12.67;;;8.27;;
16642;SDS011;8435;52.184;5.406;2023-04-16T10:33:16;13.50;;;8.40;;
16642;SDS011;8435;52.184;5.406;2023-04-16T10:35:44;11.87;;;7.93;;
16642;SDS011;8435;52.184;5.406;2023-04-16T10:41:01;12.97;;;8.23;;
16642;SDS011;8435;52.184;5.406;2023-04-16T10:43:29;12.70;;;8.50;;
16642;SDS011;8435;52.184;5.406;2023-04-16T10:45:56;12.40;;;8.70;;
16642;SDS011;8435;52.184;5.406;2023-04-16T10:48:42;9.27;;;7.80;;
16642;SDS011;8435;52.184;5.406;2023-04-16T10:51:08;10.33;;;7.70;;
16642;SDS011;8435;52.184;5.406;2023-04-16T10:53:53;9.33;;;7.53;;
16642;SDS011;8435;52.184;5.406;2023-04-16T10:56:24;11.07;;;7.73;;
16642;SDS011;8435;52.184;5.406;2023-04-16T10:58:52;9.43;;;8.20;;
16642;SDS011;8435;52.184;5.406;2023-04-16T11:01:27;8.67;;;7.77;;
16642;SDS011;8435;52.184;5.406;2023-04-16T11:03:56;9.93;;;7.87;;
16642;SDS011;8435;52.184;5.406;2023-04-16T11:06:24;10.37;;;7.70;;
16642;SDS011;8435;52.184;5.406;2023-04-16T11:09:02;9.50;;;8.00;;
16642;SDS011;8435;52.184;5.406;2023-04-16T11:11:35;10.93;;;8.77;;
16642;SDS011;8435;52.184;5.406;2023-04-16T11:14:03;8.97;;;7.50;;
16642;SDS011;8435;52.184;5.406;2023-04-16T11:16:31;11.70;;;8.50;;
16642;SDS011;8435;52.184;5.406;2023-04-16T11:18:58;9.80;;;8.70;;
16642;SDS011;8435;52.184;5.406;2023-04-16T11:21:25;11.50;;;9.57;;
16642;SDS011;8435;52.184;5.406;2023-04-16T11:23:52;12.50;;;9.53;;
16642;SDS011;8435;52.184;5.406;2023-04-16T11:26:23;10.43;;;9.17;;
16642;SDS011;8435;52.184;5.406;2023-04-16T11:28:53;12.50;;;9.80;;
16642;SDS011;8435;52.184;5.406;2023-04-16T11:31:20;10.43;;;9.07;;
16642;SDS011;8435;52.184;5.406;2023-04-16T11:33:48;14.10;;;10.13;;
16642;SDS011;8435;52.184;5.406;2023-04-16T11:36:15;13.57;;;9.37;;
16642;SDS011;8435;52.184;5.406;2023-04-16T11:38:41;13.73;;;9.33;;
16642;SDS011;8435;52.184;5.406;2023-04-16T11:41:09;9.73;;;8.73;;
16642;SDS011;8435;52.184;5.406;2023-04-16T11:43:36;11.00;;;9.67;;
16642;SDS011;8435;52.184;5.406;2023-04-16T11:46:05;14.70;;;10.93;;
16642;SDS011;8435;52.184;5.406;2023-04-16T11:48:44;17.10;;;11.03;;
16642;SDS011;8435;52.184;5.406;2023-04-16T11:51:12;16.17;;;11.57;;
16642;SDS011;8435;52.184;5.406;2023-04-16T11:53:44;14.67;;;11.10;;
16642;SDS011;8435;52.184;5.406;2023-04-16T11:56:14;16.63;;;10.77;;
16642;SDS011;8435;52.184;5.406;2023-04-16T11:59:04;15.53;;;10.67;;
16642;SDS011;8435;52.184;5.406;2023-04-16T12:01:36;11.27;;;10.07;;
16642;SDS011;8435;52.184;5.406;2023-04-16T12:04:04;15.17;;;10.43;;
16642;SDS011;8435;52.184;5.406;2023-04-16T12:06:31;15.23;;;10.80;;
16642;SDS011;8435;52.184;5.406;2023-04-16T12:08:57;14.87;;;10.23;;
16642;SDS011;8435;52.184;5.406;2023-04-16T12:11:37;13.27;;;9.70;;
16642;SDS011;8435;52.184;5.406;2023-04-16T12:14:08;14.17;;;9.37;;
16642;SDS011;8435;52.184;5.406;2023-04-16T12:16:37;13.70;;;8.87;;
16642;SDS011;8435;52.184;5.406;2023-04-16T12:19:04;10.77;;;8.37;;
16642;SDS011;8435;52.184;5.406;2023-04-16T12:21:35;12.90;;;9.27;;
16642;SDS011;8435;52.184;5.406;2023-04-16T12:24:03;12.90;;;9.00;;
16642;SDS011;8435;52.184;5.406;2023-04-16T12:26:37;11.87;;;8.90;;
16642;SDS011;8435;52.184;5.406;2023-04-16T12:29:18;12.37;;;9.30;;
16642;SDS011;8435;52.184;5.406;2023-04-16T12:31:47;11.43;;;8.10;;
16642;SDS011;8435;52.184;5.406;2023-04-16T12:34:16;11.93;;;9.27;;
16642;SDS011;8435;52.184;5.406;2023-04-16T12:36:44;10.33;;;8.40;;
16642;SDS011;8435;52.184;5.406;2023-04-16T12:39:12;9.47;;;7.73;;
16642;SDS011;8435;52.184;5.406;2023-04-16T12:41:45;8.53;;;7.30;;
16642;SDS011;8435;52.184;5.406;2023-04-16T12:44:14;10.63;;;8.23;;
16642;SDS011;8435;52.184;5.406;2023-04-16T12:46:42;12.47;;;8.57;;
16642;SDS011;8435;52.184;5.406;2023-04-16T12:49:11;11.63;;;8.57;;
16642;SDS011;8435;52.184;5.406;2023-04-16T12:51:38;13.20;;;9.20;;
16642;SDS011;8435;52.184;5.406;2023-04-16T12:54:05;15.17;;;9.80;;
16642;SDS011;8435;52.184;5.406;2023-04-16T12:56:32;13.03;;;9.03;;
16642;SDS011;8435;52.184;5.406;2023-04-16T12:58:59;11.63;;;9.10;;
16642;SDS011;8435;52.184;5.406;2023-04-16T13:01:27;11.30;;;8.70;;
16642;SDS011;8435;52.184;5.406;2023-04-16T13:03:54;13.03;;;8.90;;
16642;SDS011;8435;52.184;5.406;2023-04-16T13:06:22;13.53;;;9.77;;
16642;SDS011;8435;52.184;5.406;2023-04-16T13:08:49;15.57;;;10.00;;
16642;SDS011;8435;52.184;5.406;2023-04-16T13:11:18;18.00;;;10.13;;
16642;SDS011;8435;52.184;5.406;2023-04-16T13:13:44;16.30;;;9.90;;
16642;SDS011;8435;52.184;5.406;2023-04-16T13:16:11;17.13;;;10.20;;
16642;SDS011;8435;52.184;5.406;2023-04-16T13:18:38;19.03;;;10.03;;
16642;SDS011;8435;52.184;5.406;2023-04-16T13:21:05;15.60;;;10.03;;
16642;SDS011;8435;52.184;5.406;2023-04-16T13:23:34;13.33;;;9.27;;
16642;SDS011;8435;52.184;5.406;2023-04-16T13:26:01;13.30;;;8.97;;
16642;SDS011;8435;52.184;5.406;2023-04-16T13:28:28;11.63;;;8.93;;
16642;SDS011;8435;52.184;5.406;2023-04-16T13:30:55;11.60;;;8.70;;
16642;SDS011;8435;52.184;5.406;2023-04-16T13:33:22;15.80;;;9.60;;
16642;SDS011;8435;52.184;5.406;2023-04-16T13:35:51;12.97;;;8.60;;
16642;SDS011;8435;52.184;5.406;2023-04-16T13:38:18;10.93;;;8.60;;
16642;SDS011;8435;52.184;5.406;2023-04-16T13:40:47;11.20;;;8.13;;
16642;SDS011;8435;52.184;5.406;2023-04-16T13:43:13;10.93;;;7.87;;
16642;SDS011;8435;52.184;5.406;2023-04-16T13:45:40;11.10;;;8.37;;
16642;SDS011;8435;52.184;5.406;2023-04-16T13:48:07;11.07;;;7.90;;
16642;SDS011;8435;52.184;5.406;2023-04-16T13:50:35;12.67;;;8.73;;
16642;SDS011;8435;52.184;5.406;2023-04-16T13:53:04;10.53;;;7.73;;
16642;SDS011;8435;52.184;5.406;2023-04-16T13:55:31;9.13;;;7.40;;
16642;SDS011;8435;52.184;5.406;2023-04-16T13:57:59;11.03;;;7.83;;
16642;SDS011;8435;52.184;5.406;2023-04-16T14:00:26;9.90;;;7.47;;
16642;SDS011;8435;52.184;5.406;2023-04-16T14:02:55;10.53;;;8.00;;
16642;SDS011;8435;52.184;5.406;2023-04-16T14:05:24;9.77;;;7.93;;
16642;SDS011;8435;52.184;5.406;2023-04-16T14:07:51;9.13;;;7.63;;
16642;SDS011;8435;52.184;5.406;2023-04-16T14:10:18;10.27;;;7.80;;
16642;SDS011;8435;52.184;5.406;2023-04-16T14:12:45;10.60;;;7.80;;
16642;SDS011;8435;52.184;5.406;2023-04-16T14:15:13;10.60;;;8.13;;
16642;SDS011;8435;52.184;5.406;2023-04-16T14:17:40;10.17;;;8.20;;
16642;SDS011;8435;52.184;5.406;2023-04-16T14:20:08;10.93;;;8.03;;
16642;SDS011;8435;52.184;5.406;2023-04-16T14:22:36;9.80;;;7.77;;
16642;SDS011;8435;52.184;5.406;2023-04-16T14:25:06;13.00;;;8.67;;
16642;SDS011;8435;52.184;5.406;2023-04-16T14:27:33;11.27;;;7.77;;
16642;SDS011;8435;52.184;5.406;2023-04-16T14:30:00;11.77;;;8.30;;
16642;SDS011;8435;52.184;5.406;2023-04-16T14:32:28;10.50;;;7.83;;
16642;SDS011;8435;52.184;5.406;2023-04-16T14:34:55;13.30;;;7.93;;
16642;SDS011;8435;52.184;5.406;2023-04-16T14:37:22;12.97;;;8.50;;
16642;SDS011;8435;52.184;5.406;2023-04-16T14:39:52;11.63;;;8.93;;
16642;SDS011;8435;52.184;5.406;2023-04-16T14:42:19;10.27;;;8.57;;
16642;SDS011;8435;52.184;5.406;2023-04-16T14:44:48;11.43;;;8.13;;
16642;SDS011;8435;52.184;5.406;2023-04-16T14:47:16;15.27;;;8.93;;
16642;SDS011;8435;52.184;5.406;2023-04-16T14:49:45;10.33;;;7.90;;
16642;SDS011;8435;52.184;5.406;2023-04-16T14:52:12;14.53;;;9.07;;
16642;SDS011;8435;52.184;5.406;2023-04-16T14:54:39;12.87;;;8.63;;
16642;SDS011;8435;52.184;5.406;2023-04-16T14:57:06;10.03;;;8.13;;
16642;SDS011;8435;52.184;5.406;2023-04-16T14:59:36;11.73;;;8.93;;
16642;SDS011;8435;52.184;5.406;2023-04-16T15:02:02;9.30;;;8.07;;